Time;durP1;ratioP1;P1;durP2;ratioP2;P2;SDS_P1;SDS_P2;PMS_P1;PMS_P2;Temp;Humidity;BMP_temperature;BMP_pressure;BME280_temperature;BME280_humidity;BME280_pressure;Samples;Min_cycle;Max_cycle;Signal;HPM_P1;HPM_P2
2021/11/26 00:01:21;;;;;;;11.77;4.63;;;3.80;99.90;;;;;;5078710;28;20048;-71
2021/11/26 00:03:47;;;;;;;13.77;3.87;;;3.90;99.90;;;;;;5075288;28;20071;-72
2021/11/26 00:06:13;;;;;;;9.57;3.67;;;3.90;99.90;;;;;;5070094;28;20504;-71
2021/11/26 00:08:39;;;;;;;10.53;4.10;;;3.90;99.90;;;;;;5063069;28;20036;-71
2021/11/26 00:11:05;;;;;;;13.37;3.87;;;4.10;99.90;;;;;;5077129;28;20044;-71
2021/11/26 00:13:35;;;;;;;13.57;4.20;;;4.10;99.90;;;;;;5063996;28;20056;-72
2021/11/26 00:16:08;;;;;;;12.13;3.60;;;4.10;99.90;;;;;;5041654;28;20091;-72
2021/11/26 00:18:42;;;;;;;13.40;3.10;;;4.20;99.90;;;;;;5061302;28;20041;-71
2021/11/26 00:21:09;;;;;;;9.07;2.60;;;4.20;99.90;;;;;;5053034;28;20040;-71
2021/11/26 00:23:35;;;;;;;12.67;2.90;;;4.30;99.90;;;;;;5078992;28;20040;-72
2021/11/26 00:26:00;;;;;;;7.20;1.90;;;4.30;99.90;;;;;;5071262;28;20185;-70
2021/11/26 00:28:26;;;;;;;6.50;1.97;;;4.40;99.90;;;;;;5070067;28;20051;-70
2021/11/26 00:30:54;;;;;;;9.97;2.40;;;4.40;99.90;;;;;;5062676;28;20070;-70
2021/11/26 00:33:21;;;;;;;6.70;2.40;;;4.50;99.90;;;;;;5079450;28;20040;-71
2021/11/26 00:35:47;;;;;;;11.97;2.60;;;4.50;99.90;;;;;;5060047;28;20047;-70
2021/11/26 00:38:13;;;;;;;13.13;2.90;;;4.60;99.90;;;;;;5074398;28;20083;-71
2021/11/26 00:40:38;;;;;;;12.47;3.20;;;4.60;99.90;;;;;;5050986;28;20080;-72
2021/11/26 00:43:04;;;;;;;12.10;3.53;;;4.50;99.90;;;;;;5053295;28;20044;-70
2021/11/26 00:45:30;;;;;;;10.50;3.60;;;4.50;99.90;;;;;;5068772;28;20056;-72
2021/11/26 00:47:56;;;;;;;15.97;4.40;;;4.50;99.90;;;;;;5069519;28;20041;-71
2021/11/26 00:50:22;;;;;;;12.63;3.83;;;4.50;99.90;;;;;;5084212;28;20056;-71
2021/11/26 00:52:48;;;;;;;13.23;4.03;;;4.40;99.90;;;;;;5052988;28;20039;-71
2021/11/26 00:55:14;;;;;;;12.63;4.23;;;4.40;99.90;;;;;;5035251;28;20051;-71
2021/11/26 00:57:40;;;;;;;14.43;4.30;;;4.40;99.90;;;;;;5067157;28;20042;-71
2021/11/26 01:00:09;;;;;;;11.00;3.60;;;4.40;99.90;;;;;;5079312;28;20422;-70
2021/11/26 01:02:35;;;;;;;12.27;4.13;;;4.30;99.90;;;;;;5074133;28;20048;-70
2021/11/26 01:05:01;;;;;;;15.20;5.23;;;4.30;99.90;;;;;;5079972;28;20035;-70
2021/11/26 01:07:27;;;;;;;11.77;4.40;;;4.30;99.90;;;;;;5059379;28;20116;-71
2021/11/26 01:09:53;;;;;;;12.73;3.77;;;4.30;99.90;;;;;;5081110;28;20134;-70
2021/11/26 01:12:19;;;;;;;13.90;4.03;;;4.30;99.90;;;;;;5066739;28;20036;-70
2021/11/26 01:14:45;;;;;;;13.30;3.70;;;4.20;99.90;;;;;;5049354;28;20044;-70
2021/11/26 01:17:11;;;;;;;10.90;3.80;;;4.20;99.90;;;;;;5049400;28;20040;-70
2021/11/26 01:19:37;;;;;;;10.17;3.70;;;4.20;99.90;;;;;;5058086;28;20043;-70
2021/11/26 01:22:03;;;;;;;11.40;3.90;;;4.20;99.90;;;;;;5086851;28;20050;-70
2021/11/26 01:24:29;;;;;;;11.47;3.70;;;4.20;99.90;;;;;;5085994;28;20044;-70
2021/11/26 01:26:55;;;;;;;16.13;3.83;;;4.10;99.90;;;;;;5030019;28;20040;-73
2021/11/26 01:29:21;;;;;;;11.77;3.50;;;4.10;99.90;;;;;;5053100;28;20044;-73
2021/11/26 01:31:47;;;;;;;10.83;3.50;;;4.10;99.90;;;;;;5054094;28;20047;-73
2021/11/26 01:34:13;;;;;;;12.83;4.00;;;4.10;99.90;;;;;;5057053;28;20056;-73
2021/11/26 01:36:40;;;;;;;11.17;3.70;;;4.00;99.90;;;;;;5064044;28;20085;-73
2021/11/26 01:39:06;;;;;;;11.50;2.90;;;4.00;99.90;;;;;;5053755;28;20044;-73
2021/11/26 01:41:35;;;;;;;14.43;3.50;;;4.00;99.90;;;;;;5047756;28;20495;-70
2021/11/26 01:44:02;;;;;;;8.13;2.83;;;4.00;99.90;;;;;;5043920;28;20131;-70
2021/11/26 01:46:31;;;;;;;10.47;2.90;;;3.90;99.90;;;;;;5048212;28;20052;-70
2021/11/26 01:48:57;;;;;;;9.70;2.73;;;3.90;99.90;;;;;;5050289;28;20044;-70
2021/11/26 01:51:23;;;;;;;8.97;2.97;;;3.90;99.90;;;;;;5040438;28;20052;-70
2021/11/26 01:53:49;;;;;;;9.27;2.73;;;3.90;99.90;;;;;;5055694;28;20337;-70
2021/11/26 01:56:15;;;;;;;12.20;3.23;;;3.90;99.90;;;;;;5038949;28;20642;-70
2021/11/26 01:58:40;;;;;;;10.10;2.83;;;3.90;99.90;;;;;;5073247;28;20043;-70
2021/11/26 02:01:09;;;;;;;8.90;2.73;;;3.90;99.90;;;;;;5048921;28;20399;-70
2021/11/26 02:03:35;;;;;;;10.60;3.00;;;4.00;99.90;;;;;;5081539;28;20107;-70
2021/11/26 02:06:00;;;;;;;9.70;3.00;;;3.90;99.90;;;;;;5056473;28;20128;-70
2021/11/26 02:08:26;;;;;;;14.30;3.60;;;3.90;99.90;;;;;;5085403;28;20552;-70
2021/11/26 02:10:52;;;;;;;8.67;3.20;;;4.00;99.90;;;;;;5064770;28;20046;-70
2021/11/26 02:13:18;;;;;;;11.37;4.27;;;4.00;99.90;;;;;;5048744;28;20041;-70
2021/11/26 02:15:45;;;;;;;8.77;3.63;;;4.10;99.90;;;;;;5047430;28;20364;-70
2021/11/26 02:18:13;;;;;;;9.43;3.13;;;4.10;99.90;;;;;;5053334;28;20118;-70
2021/11/26 02:20:40;;;;;;;9.03;3.20;;;4.20;99.90;;;;;;5049989;28;20040;-70
2021/11/26 02:23:06;;;;;;;10.03;2.70;;;4.20;99.90;;;;;;5066523;28;20040;-73
2021/11/26 02:25:32;;;;;;;12.27;3.13;;;4.20;99.90;;;;;;5080191;28;20037;-73
2021/11/26 02:28:01;;;;;;;11.03;3.33;;;4.20;99.90;;;;;;5064766;28;20634;-73
2021/11/26 02:30:28;;;;;;;7.90;2.50;;;4.20;99.90;;;;;;5074614;28;20082;-70
2021/11/26 02:33:07;;;;;;;12.63;3.03;;;4.20;99.90;;;;;;5057561;28;20131;-70
2021/11/26 02:35:33;;;;;;;12.77;3.70;;;4.20;99.90;;;;;;5070326;28;20063;-70
2021/11/26 02:38:02;;;;;;;9.03;3.33;;;4.20;99.90;;;;;;5063952;28;20398;-70
2021/11/26 02:40:30;;;;;;;11.90;3.10;;;4.20;99.90;;;;;;5063318;28;20092;-70
2021/11/26 02:42:56;;;;;;;11.73;4.63;;;4.20;99.90;;;;;;5081813;28;20043;-70
2021/11/26 02:45:23;;;;;;;10.07;4.03;;;4.20;99.90;;;;;;5064533;28;20518;-70
2021/11/26 02:47:50;;;;;;;9.13;4.50;;;4.20;99.90;;;;;;5067264;28;20064;-70
2021/11/26 02:50:17;;;;;;;12.30;5.10;;;4.20;99.90;;;;;;5077381;28;20518;-70
2021/11/26 02:52:44;;;;;;;13.03;4.83;;;4.20;99.90;;;;;;5074207;28;20078;-71
2021/11/26 02:55:14;;;;;;;12.33;5.07;;;4.20;99.90;;;;;;5075290;28;20048;-71
2021/11/26 02:57:41;;;;;;;9.13;5.20;;;4.20;99.90;;;;;;5055242;28;20106;-71
2021/11/26 03:00:08;;;;;;;15.93;5.70;;;4.20;99.90;;;;;;5072159;28;20109;-71
2021/11/26 03:02:34;;;;;;;15.80;6.33;;;4.30;99.90;;;;;;5073684;28;20045;-71
2021/11/26 03:05:00;;;;;;;11.10;4.77;;;4.30;99.90;;;;;;5050104;28;20048;-71
2021/11/26 03:07:26;;;;;;;17.07;6.43;;;4.30;99.90;;;;;;5068837;28;20076;-71
2021/11/26 03:09:52;;;;;;;11.60;5.43;;;4.30;99.90;;;;;;5082321;28;20059;-71
2021/11/26 03:12:18;;;;;;;11.90;5.53;;;4.20;99.90;;;;;;5053928;28;20587;-71
2021/11/26 03:14:44;;;;;;;12.60;4.83;;;4.30;99.90;;;;;;5052146;28;20059;-71
2021/11/26 03:17:10;;;;;;;14.50;5.00;;;4.30;99.90;;;;;;5053945;28;20045;-71
2021/11/26 03:19:36;;;;;;;11.67;5.10;;;4.30;99.90;;;;;;5079528;28;20075;-71
2021/11/26 03:22:02;;;;;;;11.00;4.70;;;4.30;99.90;;;;;;5056409;28;20048;-71
2021/11/26 03:24:31;;;;;;;13.03;5.27;;;4.30;99.90;;;;;;5075017;28;20044;-71
2021/11/26 03:26:57;;;;;;;12.67;5.50;;;4.30;99.90;;;;;;5069848;28;20131;-71
2021/11/26 03:29:23;;;;;;;10.13;4.63;;;4.30;99.90;;;;;;5070586;28;20362;-71
2021/11/26 03:31:49;;;;;;;9.53;4.53;;;4.30;99.90;;;;;;5035938;28;20577;-71
2021/11/26 03:34:14;;;;;;;9.03;4.27;;;4.30;99.90;;;;;;5069368;28;20476;-70
2021/11/26 03:36:40;;;;;;;9.73;3.57;;;4.30;99.90;;;;;;5078672;28;20040;-71
2021/11/26 03:39:06;;;;;;;10.07;2.93;;;4.30;99.90;;;;;;5090144;28;20045;-71
2021/11/26 03:41:32;;;;;;;6.67;2.53;;;4.40;99.90;;;;;;5089796;28;20121;-71
2021/11/26 03:44:01;;;;;;;8.50;2.10;;;4.30;99.90;;;;;;5067714;28;20044;-71
2021/11/26 03:46:27;;;;;;;7.67;2.30;;;4.40;99.90;;;;;;5036732;28;20047;-71
2021/11/26 03:48:53;;;;;;;5.60;2.03;;;4.40;99.90;;;;;;5052187;28;20049;-71
2021/11/26 03:51:18;;;;;;;8.27;2.00;;;4.40;99.90;;;;;;5053146;28;20049;-71
2021/11/26 03:53:44;;;;;;;7.57;2.10;;;4.40;99.90;;;;;;5068491;28;20131;-71
2021/11/26 03:56:10;;;;;;;5.97;2.10;;;4.40;99.90;;;;;;5069019;28;20037;-71
2021/11/26 03:58:36;;;;;;;5.97;2.17;;;4.30;99.90;;;;;;5052327;28;20044;-70
2021/11/26 04:01:02;;;;;;;8.17;2.50;;;4.30;99.90;;;;;;5068500;28;20169;-71
2021/11/26 04:03:28;;;;;;;5.87;2.20;;;4.30;99.90;;;;;;5069119;28;20166;-71
2021/11/26 04:05:56;;;;;;;5.17;2.00;;;4.20;99.90;;;;;;5076217;28;20049;-73
2021/11/26 04:08:22;;;;;;;7.87;2.10;;;4.20;99.90;;;;;;5052509;28;20067;-72
2021/11/26 04:10:48;;;;;;;6.20;2.30;;;4.20;99.90;;;;;;5061458;28;20048;-73
2021/11/26 04:13:17;;;;;;;6.70;2.63;;;4.20;99.90;;;;;;5088868;28;20414;-73
2021/11/26 04:15:44;;;;;;;8.30;3.47;;;4.20;99.90;;;;;;5088132;28;20433;-71
2021/11/26 04:18:10;;;;;;;7.23;2.70;;;4.10;99.90;;;;;;5071966;28;20044;-71
2021/11/26 04:20:37;;;;;;;6.00;2.90;;;4.10;99.90;;;;;;5088772;28;20528;-71
2021/11/26 04:23:04;;;;;;;7.10;2.50;;;4.10;99.90;;;;;;5088500;28;20090;-71
2021/11/26 04:25:30;;;;;;;9.20;2.80;;;4.00;99.90;;;;;;5067820;28;20525;-71
2021/11/26 04:27:56;;;;;;;5.97;2.40;;;4.00;99.90;;;;;;5051645;28;20114;-71
2021/11/26 04:30:24;;;;;;;6.20;3.00;;;4.10;99.90;;;;;;5052332;28;20049;-71
2021/11/26 04:32:50;;;;;;;5.93;3.10;;;4.00;99.90;;;;;;5067763;28;20044;-71
2021/11/26 04:35:17;;;;;;;5.60;2.60;;;4.10;99.90;;;;;;5051984;28;20125;-71
2021/11/26 04:37:43;;;;;;;5.57;2.43;;;4.10;99.90;;;;;;5067733;28;20047;-71
2021/11/26 04:40:11;;;;;;;5.67;2.77;;;4.20;99.90;;;;;;5051461;28;20052;-71
2021/11/26 04:42:38;;;;;;;6.07;3.10;;;4.20;99.90;;;;;;5068207;28;20043;-71
2021/11/26 04:45:05;;;;;;;5.03;2.40;;;4.10;99.90;;;;;;5051550;28;20135;-73
2021/11/26 04:47:31;;;;;;;5.50;2.83;;;4.10;99.90;;;;;;5051061;28;20071;-73
2021/11/26 04:49:58;;;;;;;7.50;2.33;;;4.10;99.90;;;;;;5067295;28;20411;-73
2021/11/26 04:52:27;;;;;;;8.32;2.58;;;4.10;99.90;;;;;;5046886;28;20040;-73
2021/11/26 04:54:52;;;;;;;6.37;2.90;;;4.10;99.90;;;;;;5053961;28;20175;-73
2021/11/26 04:57:18;;;;;;;5.80;2.60;;;4.10;99.90;;;;;;5069126;28;20045;-71
2021/11/26 04:59:44;;;;;;;5.90;2.60;;;4.10;99.90;;;;;;5050997;28;20037;-71
2021/11/26 05:02:10;;;;;;;5.63;2.40;;;4.10;99.90;;;;;;5082536;28;20112;-71
2021/11/26 05:04:35;;;;;;;3.33;2.00;;;4.10;99.90;;;;;;5080236;28;20036;-72
2021/11/26 05:07:02;;;;;;;5.73;2.60;;;4.10;99.90;;;;;;5067176;28;20121;-71
2021/11/26 05:09:31;;;;;;;6.47;2.30;;;4.10;99.90;;;;;;5051338;28;20101;-71
2021/11/26 05:11:57;;;;;;;6.53;3.20;;;4.10;99.90;;;;;;5053252;28;20040;-71
2021/11/26 05:14:24;;;;;;;4.33;2.67;;;4.10;99.90;;;;;;5088145;28;20084;-71
2021/11/26 05:16:51;;;;;;;5.03;3.13;;;4.10;99.90;;;;;;5087867;28;20415;-71
2021/11/26 05:19:17;;;;;;;7.37;3.40;;;4.00;99.90;;;;;;5088253;28;20044;-71
2021/11/26 05:21:43;;;;;;;8.43;3.93;;;4.00;99.90;;;;;;5071217;28;20054;-71
2021/11/26 05:24:11;;;;;;;7.73;4.30;;;4.00;99.90;;;;;;5088012;28;20048;-71
2021/11/26 05:26:38;;;;;;;8.57;6.43;;;3.90;99.90;;;;;;5070276;28;20043;-71
2021/11/26 05:29:04;;;;;;;9.70;5.60;;;4.00;99.90;;;;;;5071191;28;20442;-71
2021/11/26 05:31:35;;;;;;;11.37;6.37;;;3.90;99.90;;;;;;5069697;28;20149;-72
2021/11/26 05:34:06;;;;;;;19.70;8.93;;;3.90;99.90;;;;;;5065106;28;20518;-71
2021/11/26 05:36:33;;;;;;;9.33;5.93;;;3.90;99.90;;;;;;5067226;28;20044;-71
2021/11/26 05:39:00;;;;;;;13.90;7.57;;;3.80;99.90;;;;;;5049166;28;20160;-71
2021/11/26 05:41:26;;;;;;;13.23;8.27;;;3.80;99.90;;;;;;5067688;28;20487;-71
2021/11/26 05:43:52;;;;;;;13.17;9.40;;;3.90;99.90;;;;;;5063191;28;20109;-71
2021/11/26 05:46:17;;;;;;;15.80;10.27;;;3.80;99.90;;;;;;5048891;28;20047;-71
2021/11/26 05:48:43;;;;;;;13.27;8.23;;;3.80;99.90;;;;;;5069187;28;20048;-71
2021/11/26 05:51:09;;;;;;;17.93;11.07;;;3.80;99.90;;;;;;5068235;28;20137;-71
2021/11/26 05:53:35;;;;;;;17.43;10.70;;;3.80;99.90;;;;;;5066945;28;20047;-71
2021/11/26 05:56:01;;;;;;;16.97;12.70;;;3.80;99.90;;;;;;5066110;28;20072;-71
2021/11/26 05:58:28;;;;;;;21.47;15.47;;;3.80;99.90;;;;;;5066932;28;20109;-71
2021/11/26 06:00:54;;;;;;;17.23;11.80;;;3.80;99.90;;;;;;5066388;28;20055;-71
2021/11/26 06:03:20;;;;;;;20.43;14.37;;;3.80;99.90;;;;;;5033430;28;20052;-71
2021/11/26 06:05:46;;;;;;;21.67;15.50;;;3.80;99.90;;;;;;5073944;28;20044;-71
2021/11/26 06:08:12;;;;;;;21.43;15.23;;;3.90;99.90;;;;;;5066657;28;20586;-71
2021/11/26 06:10:38;;;;;;;20.87;15.90;;;3.90;99.90;;;;;;5075165;28;20040;-71
2021/11/26 06:13:05;;;;;;;18.73;14.20;;;3.90;99.90;;;;;;5052921;28;20047;-71
2021/11/26 06:15:30;;;;;;;24.90;16.80;;;3.90;99.90;;;;;;5069588;28;20410;-71
2021/11/26 06:17:56;;;;;;;22.87;15.60;;;3.90;99.90;;;;;;5069438;28;20044;-71
2021/11/26 06:20:23;;;;;;;21.50;15.20;;;3.90;99.90;;;;;;5070145;28;20138;-71
2021/11/26 06:22:50;;;;;;;19.20;14.57;;;3.90;99.90;;;;;;5086313;28;20514;-71
2021/11/26 06:25:18;;;;;;;18.07;14.07;;;3.90;99.90;;;;;;5085008;28;20498;-71
2021/11/26 06:27:45;;;;;;;15.93;13.20;;;3.90;99.90;;;;;;5056726;28;20106;-71
2021/11/26 06:30:12;;;;;;;16.80;12.60;;;4.00;99.90;;;;;;5031629;28;20501;-71
2021/11/26 06:32:40;;;;;;;19.67;12.33;;;4.00;99.90;;;;;;5059020;28;20075;-71
2021/11/26 06:35:07;;;;;;;19.23;11.90;;;4.00;99.90;;;;;;5063831;28;20556;-71
2021/11/26 06:37:34;;;;;;;14.13;9.50;;;4.00;99.90;;;;;;5055782;28;20089;-71
2021/11/26 06:40:00;;;;;;;15.30;9.60;;;3.90;99.90;;;;;;5068347;28;20151;-71
2021/11/26 06:42:26;;;;;;;14.57;9.43;;;4.00;99.90;;;;;;5065976;28;20127;-71
2021/11/26 06:44:52;;;;;;;12.93;8.97;;;3.90;99.90;;;;;;5084918;28;20044;-71
2021/11/26 06:47:20;;;;;;;13.13;8.53;;;4.00;99.90;;;;;;5049363;28;20036;-71
2021/11/26 06:49:47;;;;;;;12.20;7.67;;;3.90;99.90;;;;;;5058926;28;20482;-71
2021/11/26 06:52:14;;;;;;;11.87;7.77;;;3.90;99.90;;;;;;5081070;28;20542;-72
2021/11/26 06:54:40;;;;;;;12.33;8.17;;;3.90;99.90;;;;;;5066922;28;20039;-72
2021/11/26 06:57:06;;;;;;;13.67;7.90;;;3.90;99.90;;;;;;5075829;28;20040;-72
2021/11/26 06:59:32;;;;;;;14.13;7.93;;;3.90;99.90;;;;;;5088750;28;20525;-73
2021/11/26 07:02:01;;;;;;;11.37;7.77;;;3.90;99.90;;;;;;5089247;28;20071;-72
2021/11/26 07:04:28;;;;;;;12.77;9.03;;;3.90;99.90;;;;;;5082655;28;20139;-73
2021/11/26 07:06:57;;;;;;;12.27;7.30;;;4.00;99.90;;;;;;5060832;28;20063;-72
2021/11/26 07:09:23;;;;;;;14.43;7.87;;;3.90;99.90;;;;;;5081203;28;20079;-72
2021/11/26 07:11:48;;;;;;;15.07;9.40;;;4.00;99.90;;;;;;5069655;28;20196;-72
2021/11/26 07:14:14;;;;;;;15.80;8.20;;;3.90;99.90;;;;;;5056476;28;20053;-72
2021/11/26 07:16:40;;;;;;;13.90;6.97;;;3.80;99.90;;;;;;5071306;28;20279;-72
2021/11/26 07:19:06;;;;;;;12.77;6.40;;;3.80;99.90;;;;;;5070146;28;20087;-74
2021/11/26 07:21:32;;;;;;;14.20;6.33;;;3.80;99.90;;;;;;5055645;28;20060;-72
2021/11/26 07:24:01;;;;;;;13.67;7.33;;;3.80;99.90;;;;;;5061952;28;20114;-72
2021/11/26 07:26:28;;;;;;;11.73;6.40;;;3.80;99.90;;;;;;5081397;28;20128;-72
2021/11/26 07:28:54;;;;;;;14.37;7.00;;;3.70;99.90;;;;;;5066871;28;20046;-72
2021/11/26 07:31:20;;;;;;;11.53;6.37;;;3.90;99.90;;;;;;5067546;28;20833;-72
2021/11/26 07:33:46;;;;;;;14.37;6.80;;;3.80;99.90;;;;;;5067650;28;20048;-72
2021/11/26 07:36:12;;;;;;;11.83;6.87;;;3.80;99.90;;;;;;5067718;28;20127;-73
2021/11/26 07:38:38;;;;;;;12.43;6.80;;;3.80;99.90;;;;;;5071516;28;20393;-72
2021/11/26 07:41:04;;;;;;;13.63;7.33;;;3.90;99.90;;;;;;5070703;28;20567;-72
2021/11/26 07:43:30;;;;;;;12.00;7.20;;;3.80;99.90;;;;;;5070926;28;20494;-72
2021/11/26 07:45:58;;;;;;;10.67;6.83;;;3.80;99.90;;;;;;5052130;28;20110;-72
2021/11/26 07:48:24;;;;;;;18.07;8.10;;;3.80;99.90;;;;;;5066928;28;20044;-72
2021/11/26 07:50:51;;;;;;;14.90;7.70;;;3.80;99.90;;;;;;5053168;28;20032;-72
2021/11/26 07:53:17;;;;;;;11.70;6.90;;;3.80;99.90;;;;;;5050171;28;20071;-72
2021/11/26 07:55:43;;;;;;;15.47;7.73;;;3.80;99.90;;;;;;5052538;28;20040;-72
2021/11/26 07:58:10;;;;;;;13.83;6.93;;;3.80;99.90;;;;;;5087361;28;20415;-72
2021/11/26 08:00:36;;;;;;;15.70;8.00;;;3.80;99.90;;;;;;5084676;28;20498;-71
2021/11/26 08:03:02;;;;;;;10.83;7.00;;;3.90;99.90;;;;;;5070972;28;20048;-72
2021/11/26 08:05:31;;;;;;;15.90;8.27;;;3.80;99.90;;;;;;5076469;28;20075;-72
2021/11/26 08:07:58;;;;;;;12.50;7.43;;;3.90;99.90;;;;;;5069227;28;20040;-73
2021/11/26 08:10:25;;;;;;;13.80;7.40;;;3.90;99.90;;;;;;5079006;28;20096;-72
2021/11/26 08:12:51;;;;;;;13.80;7.00;;;3.90;99.90;;;;;;5068136;28;20040;-72
2021/11/26 08:15:18;;;;;;;12.57;6.70;;;4.00;99.90;;;;;;5066850;28;20094;-72
2021/11/26 08:17:45;;;;;;;12.87;6.87;;;4.00;99.90;;;;;;5076078;28;20044;-72
2021/11/26 08:20:12;;;;;;;12.13;6.03;;;4.00;99.90;;;;;;5073627;28;20084;-73
2021/11/26 08:22:38;;;;;;;14.27;6.70;;;4.00;99.90;;;;;;5079910;28;20484;-72
2021/11/26 08:25:06;;;;;;;13.60;6.23;;;4.00;99.90;;;;;;5054278;28;20101;-77
2021/11/26 08:27:32;;;;;;;12.67;6.50;;;4.00;99.90;;;;;;5067906;28;20069;-77
2021/11/26 08:30:01;;;;;;;11.50;5.37;;;4.10;99.90;;;;;;5074297;28;20055;-77
2021/11/26 08:32:28;;;;;;;12.80;6.10;;;4.10;99.90;;;;;;5052288;28;20048;-77
2021/11/26 08:34:59;;;;;;;15.10;6.43;;;4.20;99.90;;;;;;5055596;28;20044;-77
2021/11/26 08:37:25;;;;;;;13.13;6.20;;;4.20;99.90;;;;;;5054065;28;20047;-77
2021/11/26 08:39:51;;;;;;;13.40;5.37;;;4.30;99.90;;;;;;5067671;28;20037;-77
2021/11/26 08:42:17;;;;;;;12.20;5.40;;;4.20;99.90;;;;;;5055452;28;20047;-77
2021/11/26 08:44:43;;;;;;;12.50;5.90;;;4.20;99.90;;;;;;5076560;28;20523;-77
2021/11/26 08:47:09;;;;;;;13.07;5.10;;;4.30;99.90;;;;;;5075630;28;20074;-77
2021/11/26 08:49:35;;;;;;;12.67;5.13;;;4.30;99.90;;;;;;5085452;28;20043;-77
2021/11/26 08:52:01;;;;;;;14.17;5.40;;;4.30;99.90;;;;;;5084985;28;20253;-77
2021/11/26 08:54:27;;;;;;;14.13;5.40;;;4.40;99.90;;;;;;5047642;28;20048;-77
2021/11/26 08:56:56;;;;;;;9.73;5.17;;;4.40;99.90;;;;;;5055999;28;20041;-77
2021/11/26 08:59:25;;;;;;;11.27;4.60;;;4.40;99.90;;;;;;5054070;28;20143;-77
2021/11/26 09:01:53;;;;;;;10.07;4.20;;;4.40;99.90;;;;;;5066386;28;20083;-77
2021/11/26 09:04:21;;;;;;;12.40;4.80;;;4.40;99.90;;;;;;5071976;28;20491;-77
2021/11/26 09:06:51;;;;;;;14.27;4.90;;;4.50;99.90;;;;;;5063506;28;20556;-77
2021/11/26 09:09:24;;;;;;;10.60;4.53;;;4.50;99.90;;;;;;5033567;28;20056;-77
2021/11/26 09:11:51;;;;;;;13.00;4.53;;;4.50;99.90;;;;;;5055382;28;20132;-77
2021/11/26 09:14:17;;;;;;;11.40;4.23;;;4.50;99.90;;;;;;5049585;28;20090;-77
2021/11/26 09:16:43;;;;;;;10.17;4.13;;;4.50;99.90;;;;;;5052257;28;20049;-76
2021/11/26 09:19:09;;;;;;;14.73;4.90;;;4.50;99.90;;;;;;5077171;28;20055;-77
2021/11/26 09:21:35;;;;;;;12.13;4.80;;;4.50;99.90;;;;;;5060083;28;20132;-77
2021/11/26 09:24:01;;;;;;;10.83;4.07;;;4.60;99.90;;;;;;5064505;28;20044;-77
2021/11/26 09:26:27;;;;;;;7.73;4.20;;;4.60;99.90;;;;;;5051460;28;20044;-77
2021/11/26 09:28:54;;;;;;;10.67;3.90;;;4.60;99.90;;;;;;5077330;28;20044;-77
2021/11/26 09:31:21;;;;;;;13.43;4.07;;;4.70;99.90;;;;;;5052298;28;20036;-76
2021/11/26 09:33:49;;;;;;;14.60;4.87;;;4.70;99.90;;;;;;5059394;28;20047;-77
2021/11/26 09:36:14;;;;;;;10.90;4.80;;;4.70;99.90;;;;;;5053247;28;20044;-76
2021/11/26 09:38:42;;;;;;;15.93;4.70;;;4.80;99.90;;;;;;5070129;28;20036;-76
2021/11/26 09:41:10;;;;;;;10.67;4.50;;;4.80;99.90;;;;;;5068729;28;20774;-77
2021/11/26 09:43:36;;;;;;;11.53;5.00;;;4.80;99.90;;;;;;5068567;28;20033;-77
2021/11/26 09:46:05;;;;;;;10.70;4.37;;;4.80;99.90;;;;;;5043086;28;20106;-76
2021/11/26 09:48:33;;;;;;;11.60;4.20;;;4.90;99.90;;;;;;5065855;28;20410;-77
2021/11/26 09:50:59;;;;;;;13.60;4.70;;;4.90;99.90;;;;;;5070714;28;20047;-77
2021/11/26 09:53:27;;;;;;;11.23;4.30;;;4.90;99.90;;;;;;5059371;28;20040;-76
2021/11/26 09:55:55;;;;;;;9.23;4.13;;;4.90;99.90;;;;;;5036006;28;20097;-77
2021/11/26 09:58:24;;;;;;;13.77;4.77;;;5.00;99.90;;;;;;5075288;28;20037;-77
2021/11/26 10:00:51;;;;;;;16.47;5.03;;;5.00;99.90;;;;;;5054919;28;20444;-77
2021/11/26 10:03:17;;;;;;;10.30;4.43;;;5.00;99.90;;;;;;5055527;28;20040;-76
2021/11/26 10:05:47;;;;;;;10.83;4.10;;;5.00;99.90;;;;;;5070999;28;20418;-77
2021/11/26 10:08:23;;;;;;;12.83;4.77;;;5.00;99.90;;;;;;5080277;28;20044;-77
2021/11/26 10:11:08;;;;;;;13.20;4.80;;;5.10;99.90;;;;;;5057422;28;20493;-77
2021/11/26 10:13:34;;;;;;;13.67;4.37;;;5.10;99.90;;;;;;5070298;28;20052;-77
2021/11/26 10:16:10;;;;;;;10.43;4.77;;;5.10;99.90;;;;;;5049145;28;20510;-76
2021/11/26 10:18:36;;;;;;;10.80;4.40;;;5.10;99.90;;;;;;5066867;28;20048;-76
2021/11/26 10:21:12;;;;;;;10.27;3.83;;;5.10;99.90;;;;;;5034248;28;20438;-77
2021/11/26 10:23:43;;;;;;;11.57;4.27;;;5.10;99.90;;;;;;5071269;28;20590;-76
2021/11/26 10:26:24;;;;;;;12.53;4.63;;;5.20;99.90;;;;;;5054392;28;20804;-76
2021/11/26 10:29:02;;;;;;;12.00;4.13;;;5.20;99.90;;;;;;5066388;28;20060;-76
2021/11/26 10:31:33;;;;;;;13.87;5.13;;;5.30;99.90;;;;;;5069926;28;20161;-77
2021/11/26 10:34:08;;;;;;;11.67;4.60;;;5.30;99.90;;;;;;5068162;28;20040;-76
2021/11/26 10:36:49;;;;;;;10.67;4.33;;;5.40;99.90;;;;;;5065640;28;20074;-76
2021/11/26 10:39:20;;;;;;;13.03;4.13;;;5.40;99.90;;;;;;5055480;28;20469;-77
2021/11/26 10:41:55;;;;;;;11.53;4.30;;;5.40;99.90;;;;;;5064844;28;20173;-76
2021/11/26 10:44:50;;;;;;;10.50;4.43;;;5.50;99.90;;;;;;5083291;28;20096;-76
2021/11/26 10:47:33;;;;;;;10.17;3.60;;;5.60;99.90;;;;;;5076591;28;20055;-76
2021/11/26 10:50:32;;;;;;;15.00;4.90;;;5.60;99.90;;;;;;5030318;28;20500;-76
2021/11/26 11:00:47;;;;;;;12.27;4.97;;;5.70;99.90;;;;;;5083677;28;20449;-76
2021/11/26 11:03:14;;;;;;;14.40;5.70;;;5.70;99.90;;;;;;5053230;28;20055;-77
2021/11/26 11:05:40;;;;;;;11.90;4.90;;;5.70;99.90;;;;;;5058727;28;20055;-76
2021/11/26 11:08:21;;;;;;;14.83;5.90;;;5.70;99.90;;;;;;5065767;28;20470;-76
2021/11/26 11:10:48;;;;;;;13.40;5.63;;;5.70;99.90;;;;;;5060296;28;20512;-77
2021/11/26 11:13:26;;;;;;;11.87;5.10;;;5.60;99.90;;;;;;5048241;28;20060;-77
2021/11/26 11:15:53;;;;;;;12.57;5.47;;;5.60;99.90;;;;;;5063786;28;20045;-77
2021/11/26 11:18:18;;;;;;;11.13;5.50;;;5.60;99.90;;;;;;5047603;28;20701;-77
2021/11/26 11:20:45;;;;;;;12.63;5.23;;;5.60;99.90;;;;;;5065341;28;20075;-76
2021/11/26 11:23:14;;;;;;;14.60;5.80;;;5.60;99.90;;;;;;5051998;28;20115;-77
2021/11/26 11:25:41;;;;;;;16.13;6.17;;;5.60;99.90;;;;;;5064222;28;20186;-76
2021/11/26 11:28:09;;;;;;;12.43;5.80;;;5.50;99.90;;;;;;5075570;28;20036;-76
2021/11/26 11:30:36;;;;;;;16.87;6.50;;;5.60;99.90;;;;;;5071024;28;20591;-76
2021/11/26 11:33:03;;;;;;;13.30;5.93;;;5.50;99.90;;;;;;5077489;28;20398;-77
2021/11/26 11:35:34;;;;;;;15.03;5.93;;;5.50;99.90;;;;;;5039255;28;20053;-76
2021/11/26 11:38:00;;;;;;;13.53;6.43;;;5.50;99.90;;;;;;5054764;28;20036;-76
2021/11/26 11:40:36;;;;;;;12.68;6.22;;;5.50;99.90;;;;;;5053578;28;20141;-76
2021/11/26 11:43:38;;;;;;;15.37;6.33;;;5.50;99.90;;;;;;5052061;28;20040;-76
2021/11/26 11:46:06;;;;;;;14.93;6.57;;;5.60;99.90;;;;;;5072364;28;20056;-76
2021/11/26 11:48:47;;;;;;;15.43;7.40;;;5.50;99.90;;;;;;5059721;28;20044;-76
2021/11/26 11:51:31;;;;;;;16.73;7.63;;;5.60;99.90;;;;;;5053764;28;20367;-77
2021/11/26 11:54:09;;;;;;;17.67;8.13;;;5.60;99.90;;;;;;5053827;28;20098;-76
2021/11/26 11:56:45;;;;;;;18.37;9.07;;;5.60;99.90;;;;;;5060066;28;20498;-76
2021/11/26 11:59:23;;;;;;;18.67;8.50;;;5.70;99.90;;;;;;5072501;28;20032;-76
2021/11/26 12:01:50;;;;;;;20.57;9.00;;;5.70;99.90;;;;;;5066813;28;20075;-76
2021/11/26 12:04:20;;;;;;;18.50;8.70;;;5.70;99.90;;;;;;5053155;28;20044;-74
2021/11/26 12:06:49;;;;;;;15.70;8.00;;;5.70;99.90;;;;;;5056937;28;20044;-76
2021/11/26 12:09:29;;;;;;;17.83;8.67;;;5.70;99.90;;;;;;5085272;28;20044;-75
2021/11/26 12:12:07;;;;;;;14.52;8.10;;;5.70;99.90;;;;;;5077889;28;20051;-75
2021/11/26 12:14:47;;;;;;;16.77;8.43;;;5.80;99.90;;;;;;5057973;28;20044;-76
2021/11/26 12:17:27;;;;;;;17.20;8.43;;;5.80;99.90;;;;;;5071606;28;20407;-75
2021/11/26 12:20:02;;;;;;;18.20;7.67;;;5.80;99.90;;;;;;5077420;28;20607;-77
2021/11/26 12:22:38;;;;;;;16.23;7.83;;;5.80;99.90;;;;;;5078974;28;20136;-77
2021/11/26 12:25:16;;;;;;;18.17;8.20;;;5.80;99.90;;;;;;5062766;28;20122;-76
2021/11/26 12:27:42;;;;;;;17.90;8.07;;;5.70;99.90;;;;;;5057544;28;20098;-76
2021/11/26 12:30:18;;;;;;;15.13;7.63;;;5.80;99.90;;;;;;5073630;28;20052;-77
2021/11/26 12:32:44;;;;;;;15.87;7.70;;;5.80;99.90;;;;;;5067810;28;20071;-78
2021/11/26 12:35:13;;;;;;;15.40;7.38;;;5.80;99.90;;;;;;5067055;28;20044;-75
2021/11/26 12:37:39;;;;;;;16.48;7.38;;;5.80;99.90;;;;;;5067381;28;20495;-76
2021/11/26 12:40:09;;;;;;;14.93;7.60;;;5.80;99.90;;;;;;5074095;28;20044;-75
2021/11/26 12:42:35;;;;;;;;;;;5.70;99.90;;;;;;5051923;28;20044;-75
2021/11/26 12:45:07;;;;;;;15.27;7.30;;;5.70;99.90;;;;;;5068652;28;19956;-75
2021/11/26 12:47:37;;;;;;;16.87;7.83;;;5.70;99.90;;;;;;5058005;28;20040;-75
2021/11/26 12:53:08;;;;;;;13.23;6.78;;;5.70;99.90;;;;;;5070563;28;20040;-74
2021/11/26 12:55:49;;;;;;;15.00;6.87;;;5.70;99.90;;;;;;5075024;28;20048;-71
2021/11/26 12:58:14;;;;;;;12.88;6.25;;;5.60;99.90;;;;;;5072319;28;20623;-71
2021/11/26 13:00:40;;;;;;;13.70;6.72;;;5.60;99.90;;;;;;5060544;28;20127;-71
2021/11/26 13:03:09;;;;;;;11.98;6.75;;;5.60;99.90;;;;;;5057254;28;20495;-71